createdAt,value
2018-02-07T00:00:19.463Z,1.28
2018-02-07T00:01:34.163Z,1.28
2018-02-07T00:02:48.789Z,1.24
2018-02-07T00:04:03.343Z,1.24
2018-02-07T00:05:17.491Z,1.28
2018-02-07T00:06:31.877Z,1.27
2018-02-07T00:07:46.264Z,1.34
2018-02-07T00:09:01.556Z,1.22
2018-02-07T00:10:16.480Z,1.18
2018-02-07T00:11:30.840Z,1.18
2018-02-07T00:12:46.000Z,1.18
2018-02-07T00:14:01.003Z,1.13
2018-02-07T00:15:16.218Z,1.18
2018-02-07T00:16:31.449Z,1.18
2018-02-07T00:17:46.909Z,1.13
2018-02-07T00:19:01.545Z,1.16
2018-02-07T00:20:16.835Z,1.2
2018-02-07T00:21:31.207Z,1.18
2018-02-07T00:22:46.354Z,1.2
2018-02-07T00:24:16.292Z,1.13
2018-02-07T00:25:31.206Z,1.16
2018-02-07T00:26:45.804Z,1.13
2018-02-07T00:27:59.884Z,1.07
2018-02-07T00:29:14.828Z,1.09
2018-02-07T00:30:29.525Z,1.1
2018-02-07T00:31:44.462Z,1.07
2018-02-07T00:32:58.846Z,1.09
2018-02-07T00:34:13.815Z,1.12
2018-02-07T00:35:28.512Z,1.09
2018-02-07T00:36:42.936Z,1.1
2018-02-07T00:37:58.420Z,1.12
2018-02-07T00:39:13.463Z,1.1
2018-02-07T00:40:28.771Z,1.16
2018-02-07T00:41:43.218Z,1.1
2018-02-07T00:42:58.059Z,1.04
2018-02-07T00:44:12.974Z,1.09
2018-02-07T00:45:27.162Z,1.02
2018-02-07T00:46:41.788Z,1.03
2018-02-07T00:47:55.977Z,1.03
2018-02-07T00:49:11.251Z,0.94
2018-02-07T00:50:26.474Z,0.94
2018-02-07T00:51:40.821Z,1.03
2018-02-07T00:52:55.512Z,1
2018-02-07T00:54:09.706Z,0.96
2018-02-07T00:55:24.476Z,0.94
2018-02-07T00:56:39.445Z,0.94
2018-02-07T00:57:54.895Z,0.92
2018-02-07T00:59:10.074Z,0.89
2018-02-07T01:00:25.252Z,0.95
2018-02-07T01:01:39.611Z,0.84
2018-02-07T01:02:54.805Z,0.86
2018-02-07T01:04:08.978Z,0.85
2018-02-07T01:05:23.629Z,0.85
2018-02-07T01:06:38.030Z,0.86
2018-02-07T01:07:52.601Z,0.89
2018-02-07T01:09:07.586Z,0.86
2018-02-07T01:10:22.524Z,0.81
2018-02-07T01:11:37.195Z,0.7
2018-02-07T01:12:52.679Z,0.77
2018-02-07T01:14:07.617Z,0.86
2018-02-07T01:15:23.164Z,0.82
2018-02-07T01:16:37.806Z,0.89
2018-02-07T01:17:52.730Z,0.89
2018-02-07T01:19:07.354Z,0.86
2018-02-07T01:20:22.013Z,0.84
2018-02-07T01:21:37.380Z,0.84
2018-02-07T01:22:51.773Z,0.84
2018-02-07T01:24:06.394Z,0.88
2018-02-07T01:25:33.554Z,0.84
2018-02-07T01:26:51.827Z,0.86
2018-02-07T01:28:06.498Z,0.86
2018-02-07T01:29:21.463Z,0.85
2018-02-07T01:30:36.082Z,0.86
2018-02-07T01:31:50.992Z,0.86
2018-02-07T01:33:06.164Z,0.74
2018-02-07T01:34:20.709Z,0.73
2018-02-07T01:35:35.293Z,0.71
2018-02-07T01:36:50.200Z,0.71
2018-02-07T01:38:05.143Z,0.82
2018-02-07T01:39:20.045Z,0.84
2018-02-07T01:40:34.691Z,0.86
2018-02-07T01:41:49.886Z,0.85
2018-02-07T01:43:04.178Z,0.73
2018-02-07T01:44:19.186Z,0.86
2018-02-07T01:45:34.030Z,0.81
2018-02-07T01:46:49.730Z,0.73
2018-02-07T01:48:04.833Z,0.74
2018-02-07T01:49:20.100Z,0.77
2018-02-07T01:50:34.697Z,0.76
2018-02-07T01:51:49.269Z,0.73
2018-02-07T01:53:04.110Z,0.71
2018-02-07T01:54:19.430Z,0.81
2018-02-07T01:55:34.598Z,0.76
2018-02-07T01:56:49.748Z,0.74
2018-02-07T01:58:04.652Z,0.76
2018-02-07T01:59:19.780Z,0.77
2018-02-07T02:00:34.693Z,0.84
2018-02-07T02:01:50.086Z,0.85
2018-02-07T02:03:04.755Z,0.7
2018-02-07T02:04:19.991Z,0.71
2018-02-07T02:05:35.491Z,0.76
2018-02-07T02:06:50.372Z,0.74
2018-02-07T02:08:05.010Z,0.77
2018-02-07T02:09:20.121Z,0.78
2018-02-07T02:10:35.029Z,0.71
2018-02-07T02:11:50.245Z,0.73
2018-02-07T02:13:04.534Z,0.81
2018-02-07T02:14:19.388Z,0.74
2018-02-07T02:15:33.912Z,0.73
2018-02-07T02:16:48.755Z,0.74
2018-02-07T02:18:04.231Z,0.74
2018-02-07T02:19:18.847Z,0.59
2018-02-07T02:20:34.395Z,0.73
2018-02-07T02:21:49.505Z,0.66
2018-02-07T02:23:04.346Z,0.71
2018-02-07T02:24:19.484Z,0.66
2018-02-07T02:25:34.060Z,0.73
2018-02-07T02:26:48.338Z,0.68
2018-02-07T02:28:03.226Z,0.67
2018-02-07T02:29:17.843Z,0.63
2018-02-07T02:30:32.549Z,0.63
2018-02-07T02:31:47.093Z,0.63
2018-02-07T02:33:01.949Z,0.63
2018-02-07T02:34:16.843Z,0.63
2018-02-07T02:35:31.384Z,0.66
2018-02-07T02:36:46.257Z,0.59
2018-02-07T02:38:00.577Z,0.59
2018-02-07T02:39:15.466Z,0.63
2018-02-07T02:40:30.942Z,0.55
2018-02-07T02:41:45.618Z,0.61
2018-02-07T02:43:00.816Z,0.52
2018-02-07T02:44:15.966Z,0.58
2018-02-07T02:45:31.234Z,0.61
2018-02-07T02:46:45.859Z,0.52
2018-02-07T02:48:00.750Z,0.48
2018-02-07T02:49:16.437Z,0.61
2018-02-07T02:50:30.880Z,0.52
2018-02-07T02:51:45.861Z,0.48
2018-02-07T02:53:00.209Z,0.52
2018-02-07T02:54:15.104Z,0.51
2018-02-07T02:55:30.029Z,0.63
2018-02-07T02:56:44.483Z,0.59
2018-02-07T02:57:59.893Z,0.49
2018-02-07T02:59:14.492Z,0.45
2018-02-07T03:00:29.391Z,0.47
2018-02-07T03:01:44.747Z,0.49
2018-02-07T03:02:59.647Z,0.51
2018-02-07T03:04:14.298Z,0.45
2018-02-07T03:05:28.662Z,0.48
2018-02-07T03:06:44.163Z,0.47
2018-02-07T03:07:59.046Z,0.45
2018-02-07T03:09:13.621Z,0.47
2018-02-07T03:10:28.184Z,0.48
2018-02-07T03:11:42.282Z,0.44
2018-02-07T03:12:57.132Z,0.45
2018-02-07T03:14:12.298Z,0.45
2018-02-07T03:15:27.506Z,0.39
2018-02-07T03:16:42.899Z,0.44
2018-02-07T03:17:57.206Z,0.31
2018-02-07T03:19:11.760Z,0.37
2018-02-07T03:20:26.903Z,0.34
2018-02-07T03:21:42.115Z,0.31
2018-02-07T03:22:57.288Z,0.3
2018-02-07T03:24:11.838Z,0.39
2018-02-07T03:25:26.192Z,0.39
2018-02-07T03:26:41.435Z,0.24
2018-02-07T03:27:56.036Z,0.34
2018-02-07T03:29:11.237Z,0.29
2018-02-07T03:30:26.668Z,0.26
2018-02-07T03:31:41.526Z,0.12
2018-02-07T03:32:56.393Z,0.16
2018-02-07T03:34:11.814Z,0.15
2018-02-07T03:35:26.926Z,0.27
2018-02-07T03:36:41.533Z,0.18
2018-02-07T03:37:56.950Z,0.18
2018-02-07T03:39:13.217Z,0.26
2018-02-07T03:40:27.499Z,0.11
2018-02-07T03:41:42.110Z,0.19
2018-02-07T03:42:57.248Z,0.16
2018-02-07T03:44:11.827Z,0.16
2018-02-07T03:45:26.982Z,0.23
2018-02-07T03:46:41.543Z,0.2
2018-02-07T03:47:56.232Z,0.15
2018-02-07T03:49:10.860Z,0.16
2018-02-07T03:50:26.058Z,0.13
2018-02-07T03:51:41.735Z,0.12
2018-02-07T03:52:57.068Z,0.09
2018-02-07T03:54:11.632Z,0.05
2018-02-07T03:55:26.542Z,0.12
2018-02-07T03:56:41.665Z,0
2018-02-07T03:57:56.979Z,0.09
2018-02-07T03:59:12.120Z,0.12
2018-02-07T04:00:26.998Z,0.11
2018-02-07T04:01:41.876Z,0.08
2018-02-07T04:02:57.063Z,0.15
2018-02-07T04:04:12.256Z,0.15
2018-02-07T04:05:26.896Z,0.11
2018-02-07T04:06:41.718Z,0.05
2018-02-07T04:07:56.123Z,0.02
2018-02-07T04:09:10.732Z,0.09
2018-02-07T04:10:25.914Z,0.12
2018-02-07T04:11:40.962Z,0.18
2018-02-07T04:12:56.332Z,0.12
2018-02-07T04:14:11.199Z,0.16
2018-02-07T04:15:26.358Z,0.15
2018-02-07T04:16:41.488Z,0.2
2018-02-07T04:17:56.406Z,0.06
2018-02-07T04:19:11.285Z,0.06
2018-02-07T04:20:25.618Z,0.01
2018-02-07T04:21:40.520Z,0.02
2018-02-07T04:22:55.441Z,0
2018-02-07T04:24:10.004Z,0.09
2018-02-07T04:25:24.581Z,0
2018-02-07T04:26:39.425Z,-0.03
2018-02-07T04:27:53.769Z,0.02
2018-02-07T04:29:08.717Z,-0.06
2018-02-07T04:30:24.146Z,-0.02
2018-02-07T04:31:39.020Z,-0.02
2018-02-07T04:32:54.245Z,-0.09
2018-02-07T04:35:18.858Z,0.01
2018-02-07T04:36:34.027Z,-0.06
2018-02-07T04:37:48.919Z,0.05
2018-02-07T04:39:03.115Z,-0.07
2018-02-07T04:40:18.267Z,-0.09
2018-02-07T04:41:32.645Z,-0.13
2018-02-07T04:42:47.783Z,-0.1
2018-02-07T04:44:03.648Z,-0.15
2018-02-07T04:45:17.969Z,-0.15
2018-02-07T04:46:33.153Z,-0.18
2018-02-07T04:47:47.739Z,-0.12
2018-02-07T04:49:02.946Z,-0.07
2018-02-07T04:50:17.878Z,-0.23
2018-02-07T04:51:32.474Z,-0.15
2018-02-07T04:52:47.329Z,-0.12
2018-02-07T04:54:02.443Z,-0.06
2018-02-07T04:55:17.714Z,-0.21
2018-02-07T04:56:32.290Z,-0.21
2018-02-07T04:57:47.501Z,-0.18
2018-02-07T04:59:02.076Z,-0.2
2018-02-07T05:00:16.926Z,-0.2
2018-02-07T05:01:31.853Z,-0.17
2018-02-07T05:02:46.723Z,-0.2
2018-02-07T05:04:01.867Z,-0.18
2018-02-07T05:05:16.468Z,-0.2
2018-02-07T05:06:30.876Z,-0.13
2018-02-07T05:07:45.773Z,-0.2
2018-02-07T05:09:00.907Z,-0.17
2018-02-07T05:10:15.719Z,-0.15
2018-02-07T05:11:30.087Z,-0.1
2018-02-07T05:12:45.176Z,-0.18
2018-02-07T05:14:00.390Z,-0.13
2018-02-07T05:15:15.294Z,-0.15
2018-02-07T05:16:30.280Z,-0.21
2018-02-07T05:17:45.417Z,-0.13
2018-02-07T05:18:59.953Z,-0.23
2018-02-07T05:20:15.103Z,-0.2
2018-02-07T05:21:29.718Z,-0.24
2018-02-07T05:22:44.008Z,-0.17
2018-02-07T05:23:59.020Z,-0.26
2018-02-07T05:25:13.623Z,-0.2
2018-02-07T05:26:29.036Z,-0.15
2018-02-07T05:27:43.895Z,-0.21
2018-02-07T05:28:59.114Z,-0.24
2018-02-07T05:30:13.968Z,-0.23
2018-02-07T05:31:28.837Z,-0.24
2018-02-07T05:32:43.211Z,-0.2
2018-02-07T05:33:58.035Z,-0.2
2018-02-07T05:35:13.060Z,-0.26
2018-02-07T05:36:27.633Z,-0.18
2018-02-07T05:37:42.857Z,-0.28
2018-02-07T05:38:58.348Z,-0.24
2018-02-07T05:40:12.763Z,-0.21
2018-02-07T05:41:27.920Z,-0.17
2018-02-07T05:42:42.489Z,-0.23
2018-02-07T05:43:57.107Z,-0.18
2018-02-07T05:45:12.183Z,-0.2
2018-02-07T05:46:26.501Z,-0.17
2018-02-07T05:47:41.670Z,-0.15
2018-02-07T05:48:56.754Z,-0.18
2018-02-07T05:50:11.908Z,-0.2
2018-02-07T05:51:27.180Z,-0.23
2018-02-07T05:52:41.780Z,-0.27
2018-02-07T05:53:56.364Z,-0.26
2018-02-07T05:55:10.514Z,-0.1
2018-02-07T05:56:25.656Z,-0.05
2018-02-07T05:57:40.249Z,-0.1
2018-02-07T05:59:21.089Z,-0.1
2018-02-07T06:00:35.583Z,-0.15
2018-02-07T06:01:50.468Z,-0.1
2018-02-07T06:03:05.946Z,-0.07
2018-02-07T06:04:19.741Z,-0.09
2018-02-07T06:05:34.149Z,-0.12
2018-02-07T06:06:48.736Z,-0.15
2018-02-07T06:08:03.096Z,-0.12
2018-02-07T06:09:17.748Z,-0.17
2018-02-07T06:10:32.504Z,-0.17
2018-02-07T06:11:47.948Z,-0.17
2018-02-07T06:13:03.116Z,-0.09
2018-02-07T06:14:18.539Z,-0.15
2018-02-07T06:15:33.527Z,-0.1
2018-02-07T06:16:48.986Z,-0.12
2018-02-07T06:18:03.647Z,-0.07
2018-02-07T06:19:17.995Z,-0.07
2018-02-07T06:20:32.735Z,-0.07
2018-02-07T06:21:47.859Z,-0.07
2018-02-07T06:23:02.734Z,-0.05
2018-02-07T06:24:17.961Z,-0.07
2018-02-07T06:25:32.882Z,-0.03
2018-02-07T06:26:48.075Z,-0.1
2018-02-07T06:28:03.505Z,-0.1
2018-02-07T06:29:18.142Z,-0.06
2018-02-07T06:30:33.114Z,-0.07
2018-02-07T06:31:47.443Z,-0.1
2018-02-07T06:33:02.588Z,-0.06
2018-02-07T06:34:17.732Z,-0.1
2018-02-07T06:35:32.033Z,-0.1
2018-02-07T06:36:47.202Z,-0.09
2018-02-07T06:38:02.415Z,-0.15
2018-02-07T06:39:17.043Z,-0.13
2018-02-07T06:40:32.735Z,-0.12
2018-02-07T06:41:47.382Z,-0.09
2018-02-07T06:43:02.258Z,-0.03
2018-02-07T06:44:17.172Z,-0.12
2018-02-07T06:45:31.249Z,-0.06
2018-02-07T06:46:46.053Z,-0.05
2018-02-07T06:48:01.216Z,-0.09
2018-02-07T06:49:16.424Z,-0.03
2018-02-07T06:50:31.053Z,0.02
2018-02-07T06:51:46.316Z,-0.06
2018-02-07T06:53:01.245Z,-0.05
2018-02-07T06:54:16.480Z,-0.05
2018-02-07T06:55:31.631Z,-0.05
2018-02-07T06:56:46.625Z,-0.06
2018-02-07T06:58:01.466Z,0.05
2018-02-07T06:59:16.424Z,-0.05
2018-02-07T07:00:31.073Z,-0.05
2018-02-07T07:01:46.476Z,-0.05
2018-02-07T07:03:01.686Z,-0.07
2018-02-07T07:04:16.063Z,0.01
2018-02-07T07:05:31.842Z,0.08
2018-02-07T07:06:46.613Z,0.12
2018-02-07T07:08:00.944Z,0.16
2018-02-07T07:09:15.538Z,0.15
2018-02-07T07:10:30.738Z,0.11
2018-02-07T07:11:45.762Z,0.18
2018-02-07T07:13:00.436Z,0.15
2018-02-07T07:14:15.688Z,0.16
2018-02-07T07:15:31.138Z,0.12
2018-02-07T07:16:46.196Z,0.11
2018-02-07T07:18:01.391Z,0.23
2018-02-07T07:19:15.982Z,0.15
2018-02-07T07:20:30.432Z,0.24
2018-02-07T07:21:44.619Z,0.15
2018-02-07T07:22:59.800Z,0.29
2018-02-07T07:24:15.167Z,0.3
2018-02-07T07:25:30.059Z,0.33
2018-02-07T07:26:45.041Z,0.3
2018-02-07T07:27:59.928Z,0.34
2018-02-07T07:29:14.551Z,0.33
2018-02-07T07:30:29.488Z,0.42
2018-02-07T07:31:44.566Z,0.44
2018-02-07T07:32:59.209Z,0.42
2018-02-07T07:35:49.611Z,0.48
2018-02-07T07:37:05.361Z,0.56
2018-02-07T07:38:19.697Z,0.49
2018-02-07T07:39:34.312Z,0.52
2018-02-07T07:40:49.205Z,0.63
2018-02-07T07:42:03.862Z,0.59
2018-02-07T07:43:18.520Z,0.63
2018-02-07T07:44:32.931Z,0.74
2018-02-07T07:45:48.220Z,0.73
2018-02-07T07:47:03.033Z,0.73
2018-02-07T07:48:17.657Z,0.81
2018-02-07T07:49:32.599Z,0.77
2018-02-07T07:50:47.221Z,0.71
2018-02-07T07:52:02.026Z,0.78
2018-02-07T07:53:16.696Z,0.73
2018-02-07T07:54:31.007Z,0.71
2018-02-07T07:55:45.591Z,0.89
2018-02-07T07:57:00.262Z,0.86
2018-02-07T07:58:15.466Z,0.89
2018-02-07T07:59:30.964Z,0.91
2018-02-07T08:00:45.915Z,0.95
2018-02-07T08:02:01.160Z,1.04
2018-02-07T08:03:16.002Z,0.96
2018-02-07T08:04:30.746Z,1.02
2018-02-07T08:05:45.376Z,0.99
2018-02-07T08:07:00.598Z,0.96
2018-02-07T08:08:15.911Z,0.99
2018-02-07T08:09:31.089Z,1.1
2018-02-07T08:10:45.237Z,1.06
2018-02-07T08:11:59.393Z,1.06
2018-02-07T08:13:14.642Z,1.02
2018-02-07T08:14:28.984Z,1
2018-02-07T08:15:44.040Z,0.95
2018-02-07T08:16:59.414Z,1
2018-02-07T08:18:13.751Z,1.04
2018-02-07T08:19:29.055Z,1.06
2018-02-07T08:20:43.948Z,1.1
2018-02-07T08:21:59.363Z,1.06
2018-02-07T08:23:13.788Z,1.13
2018-02-07T08:24:28.524Z,0.99
2018-02-07T08:25:43.148Z,1.03
2018-02-07T08:27:04.320Z,1.12
2018-02-07T08:28:51.349Z,1.34
2018-02-07T08:30:05.753Z,1.24
2018-02-07T08:31:20.748Z,1.28
2018-02-07T08:32:35.806Z,1.3
2018-02-07T08:33:50.523Z,1.18
2018-02-07T08:35:04.609Z,1.13
2018-02-07T08:36:19.249Z,1.2
2018-02-07T08:37:34.058Z,1.28
2018-02-07T08:38:48.697Z,1.36
2018-02-07T08:40:03.357Z,1.43
2018-02-07T08:41:18.858Z,1.42
2018-02-07T08:42:33.980Z,1.48
2018-02-07T08:43:49.180Z,1.43
2018-02-07T08:45:04.076Z,1.45
2018-02-07T08:46:18.447Z,1.45
2018-02-07T08:47:33.333Z,1.5
2018-02-07T08:48:47.990Z,1.42
2018-02-07T08:50:02.349Z,1.45
2018-02-07T08:51:17.336Z,1.36
2018-02-07T08:52:32.536Z,1.31
2018-02-07T08:53:47.032Z,1.25
2018-02-07T08:55:00.853Z,1.18
2018-02-07T08:56:16.339Z,1.3
2018-02-07T08:57:30.572Z,1.31
2018-02-07T08:58:45.866Z,1.3
2018-02-07T09:00:00.531Z,1.38
2018-02-07T09:01:15.456Z,1.3
2018-02-07T09:02:30.165Z,1.43
2018-02-07T09:03:44.400Z,1.53
2018-02-07T09:05:15.633Z,1.56
2018-02-07T09:06:29.963Z,1.68
2018-02-07T09:07:44.156Z,1.76
2018-02-07T09:08:59.152Z,1.89
2018-02-07T09:10:13.797Z,2.22
2018-02-07T09:11:32.484Z,2.25
2018-02-07T09:12:48.378Z,2.34
2018-02-07T09:14:02.463Z,2.37
2018-02-07T09:15:17.358Z,2.43
2018-02-07T09:16:32.940Z,2.43
2018-02-07T09:17:48.236Z,2.57
2018-02-07T09:19:03.215Z,2.64
2018-02-07T09:20:18.486Z,2.73
2018-02-07T09:21:33.734Z,2.75
2018-02-07T09:22:49.104Z,2.77
2018-02-07T09:24:03.789Z,2.8
2018-02-07T09:25:19.064Z,2.65
2018-02-07T09:26:33.487Z,2.79
2018-02-07T09:27:48.404Z,2.93
2018-02-07T09:29:02.518Z,2.94
2018-02-07T09:30:18.011Z,2.88
2018-02-07T09:31:32.658Z,2.93
2018-02-07T09:32:48.302Z,2.97
2018-02-07T09:34:02.371Z,2.97
2018-02-07T09:35:17.054Z,3.11
2018-02-07T09:36:32.231Z,3.01
2018-02-07T09:37:47.332Z,2.98
2018-02-07T09:39:02.219Z,3.12
2018-02-07T09:40:17.228Z,3.16
2018-02-07T09:41:31.847Z,3.13
2018-02-07T09:42:46.143Z,3.18
2018-02-07T09:44:01.374Z,3.01
2018-02-07T09:45:16.410Z,3.16
2018-02-07T09:46:31.723Z,3.21
2018-02-07T09:47:46.983Z,3.13
2018-02-07T09:49:02.491Z,3.15
2018-02-07T09:50:17.423Z,3.08
2018-02-07T09:51:31.223Z,3.12
2018-02-07T09:52:45.898Z,2.98
2018-02-07T09:54:01.179Z,3.03
2018-02-07T09:55:15.528Z,2.9
2018-02-07T09:56:30.999Z,2.72
2018-02-07T09:57:45.122Z,2.79
2018-02-07T09:59:00.427Z,2.7
2018-02-07T10:00:14.747Z,2.7
2018-02-07T10:01:29.652Z,2.73
2018-02-07T10:02:45.206Z,2.76
2018-02-07T10:04:00.336Z,2.73
2018-02-07T10:05:15.266Z,2.75
2018-02-07T10:06:30.244Z,2.65
2018-02-07T10:07:45.173Z,2.57
2018-02-07T10:08:59.949Z,2.62
2018-02-07T10:10:14.855Z,2.69
2018-02-07T10:11:29.507Z,2.83
2018-02-07T10:13:30.404Z,2.95
2018-02-07T10:14:45.565Z,3
2018-02-07T10:16:00.441Z,2.97
2018-02-07T10:17:15.574Z,2.98
2018-02-07T10:18:30.607Z,3.05
2018-02-07T10:19:45.791Z,3.11
2018-02-07T10:21:01.177Z,2.98
2018-02-07T10:22:16.606Z,3.06
2018-02-07T10:23:31.693Z,3.15
2018-02-07T10:24:46.980Z,3.21
2018-02-07T10:26:01.345Z,3.19
2018-02-07T10:27:15.801Z,3.12
2018-02-07T10:28:30.627Z,2.98
2018-02-07T10:29:45.825Z,3.13
2018-02-07T10:31:00.290Z,3.16
2018-02-07T10:32:15.190Z,3.21
2018-02-07T10:33:29.885Z,3.24
2018-02-07T10:34:45.060Z,3.24
2018-02-07T10:35:59.437Z,3.37
2018-02-07T10:37:13.900Z,3.45
2018-02-07T10:38:29.249Z,3.45
2018-02-07T10:39:44.159Z,3.41
2018-02-07T10:40:58.556Z,3.45
2018-02-07T10:42:13.238Z,3.4
2018-02-07T10:43:28.538Z,3.56
2018-02-07T10:44:43.413Z,3.68
2018-02-07T10:47:08.902Z,3.64
2018-02-07T10:48:23.326Z,3.61
2018-02-07T10:49:38.166Z,3.67
2018-02-07T10:50:53.295Z,3.63
2018-02-07T10:52:08.843Z,3.66
2018-02-07T10:53:23.555Z,3.63
2018-02-07T10:54:38.389Z,3.82
2018-02-07T10:55:53.040Z,3.7
2018-02-07T10:57:07.379Z,3.71
2018-02-07T10:58:22.522Z,3.61
2018-02-07T10:59:37.055Z,3.74
2018-02-07T11:00:52.010Z,3.81
2018-02-07T11:02:07.003Z,3.73
2018-02-07T11:03:22.293Z,3.88
2018-02-07T11:04:37.336Z,3.88
2018-02-07T11:05:52.156Z,3.99
2018-02-07T11:07:07.217Z,3.89
2018-02-07T11:08:22.237Z,3.94
2018-02-07T11:09:37.662Z,4
2018-02-07T11:10:53.189Z,4.06
2018-02-07T11:12:08.120Z,4
2018-02-07T11:13:22.579Z,4.06
2018-02-07T11:14:37.982Z,4.02
2018-02-07T11:15:52.661Z,4.12
2018-02-07T11:17:08.230Z,4.1
2018-02-07T11:18:23.488Z,4.28
2018-02-07T11:19:38.851Z,4.24
2018-02-07T11:20:53.849Z,4.32
2018-02-07T11:22:09.066Z,4.25
2018-02-07T11:23:24.303Z,4.22
2018-02-07T11:24:38.725Z,4.14
2018-02-07T11:25:53.383Z,4.1
2018-02-07T11:27:08.362Z,4.22
2018-02-07T11:28:23.227Z,4.38
2018-02-07T11:29:38.062Z,4.38
2018-02-07T11:30:53.642Z,4.42
2018-02-07T11:32:08.938Z,4.43
2018-02-07T11:33:23.711Z,4.48
2018-02-07T11:34:39.074Z,4.5
2018-02-07T11:35:54.380Z,4.28
2018-02-07T11:37:08.798Z,4.09
2018-02-07T11:38:24.025Z,4.02
2018-02-07T11:39:39.106Z,3.94
2018-02-07T11:40:54.133Z,3.94
2018-02-07T11:42:09.431Z,3.95
2018-02-07T11:43:24.327Z,3.94
2018-02-07T11:44:38.667Z,3.82
2018-02-07T11:45:52.981Z,3.73
2018-02-07T11:47:07.619Z,3.78
2018-02-07T11:48:22.711Z,3.85
2018-02-07T11:49:36.641Z,3.91
2018-02-07T11:50:51.511Z,3.96
2018-02-07T11:52:06.477Z,3.86
2018-02-07T11:53:21.755Z,3.77
2018-02-07T11:54:36.107Z,3.73
2018-02-07T11:55:50.985Z,3.77
2018-02-07T11:57:05.299Z,3.78
2018-02-07T11:58:20.805Z,3.78
2018-02-07T11:59:34.899Z,3.84
2018-02-07T12:00:50.685Z,3.94
2018-02-07T12:02:05.332Z,3.85
2018-02-07T12:03:20.299Z,3.95
2018-02-07T12:04:34.651Z,3.91
2018-02-07T12:05:49.735Z,3.91
2018-02-07T12:07:05.266Z,3.92
2018-02-07T12:08:20.341Z,4
2018-02-07T12:09:35.059Z,3.99
2018-02-07T12:10:49.705Z,4.04
2018-02-07T12:12:04.459Z,4.09
2018-02-07T12:13:19.447Z,4.12
2018-02-07T12:14:34.176Z,4.16
2018-02-07T12:15:48.886Z,4.28
2018-02-07T12:17:04.104Z,4.28
2018-02-07T12:18:18.762Z,4.09
2018-02-07T12:19:33.774Z,4.14
2018-02-07T12:20:49.109Z,4.24
2018-02-07T12:22:23.647Z,4.2
2018-02-07T12:23:38.556Z,4.27
2018-02-07T12:25:06.202Z,4.25
2018-02-07T12:26:20.708Z,4.36
2018-02-07T12:27:35.725Z,4.3
2018-02-07T12:28:49.628Z,4.27
2018-02-07T12:30:04.863Z,4.21
2018-02-07T12:31:19.555Z,4.3
2018-02-07T12:32:34.568Z,4.31
2018-02-07T12:33:49.067Z,4.27
2018-02-07T12:35:03.517Z,4.27
2018-02-07T12:36:18.058Z,4.43
2018-02-07T12:37:31.880Z,4.5
2018-02-07T12:38:46.530Z,4.53
2018-02-07T12:40:00.666Z,4.52
2018-02-07T12:41:15.542Z,4.6
2018-02-07T12:42:30.840Z,4.64
2018-02-07T12:43:45.199Z,4.76
2018-02-07T12:44:59.305Z,4.84
2018-02-07T12:46:13.573Z,4.74
2018-02-07T12:47:28.944Z,4.83
2018-02-07T12:48:44.270Z,4.83
2018-02-07T12:49:59.509Z,4.87
2018-02-07T12:51:14.209Z,4.94
2018-02-07T12:52:28.686Z,4.94
2018-02-07T12:53:43.553Z,4.78
2018-02-07T12:54:58.302Z,4.79
2018-02-07T12:56:13.871Z,4.97
2018-02-07T12:57:29.265Z,4.97
2018-02-07T12:58:44.254Z,5
2018-02-07T12:59:59.559Z,5.05
2018-02-07T13:01:14.026Z,5.04
2018-02-07T13:02:28.872Z,5.08
2018-02-07T13:03:44.106Z,5.1
2018-02-07T13:04:58.798Z,5.07
2018-02-07T13:06:13.251Z,5.13
2018-02-07T13:07:28.751Z,5.1
2018-02-07T13:08:44.243Z,5.02
2018-02-07T13:09:59.519Z,5.08
2018-02-07T13:11:14.536Z,5.02
2018-02-07T13:12:29.558Z,4.94
2018-02-07T13:13:44.581Z,5.15
2018-02-07T13:14:59.559Z,5.19
2018-02-07T13:16:14.313Z,5.25
2018-02-07T13:17:29.440Z,5.22
2018-02-07T13:18:44.445Z,5.19
2018-02-07T13:19:59.541Z,5.25
2018-02-07T13:21:14.660Z,5.23
2018-02-07T13:22:29.231Z,5.19
2018-02-07T13:23:43.902Z,5.22
2018-02-07T13:24:58.936Z,5.19
2018-02-07T13:26:14.962Z,5.19
2018-02-07T13:27:30.148Z,5.2
2018-02-07T13:28:44.892Z,5
2018-02-07T13:29:59.302Z,5.12
2018-02-07T13:31:14.038Z,5
2018-02-07T13:32:29.434Z,5.12
2018-02-07T13:33:44.111Z,5.07
2018-02-07T13:34:59.418Z,5.19
2018-02-07T13:36:14.118Z,5.05
2018-02-07T13:37:28.937Z,5.1
2018-02-07T13:38:44.239Z,5.23
2018-02-07T13:39:59.247Z,5.13
2018-02-07T13:41:14.778Z,5.1
2018-02-07T13:42:29.767Z,5.01
2018-02-07T13:43:44.752Z,5.02
2018-02-07T13:45:00.304Z,4.84
2018-02-07T13:46:14.857Z,4.83
2018-02-07T13:47:29.446Z,4.9
2018-02-07T13:48:44.116Z,4.9
2018-02-07T13:49:59.350Z,4.86
2018-02-07T13:51:14.420Z,4.86
2018-02-07T13:52:29.413Z,5.02
2018-02-07T13:53:44.249Z,4.98
2018-02-07T13:54:59.328Z,4.86
2018-02-07T13:56:14.181Z,4.94
2018-02-07T13:57:29.507Z,4.97
2018-02-07T13:58:44.765Z,4.9
2018-02-07T13:59:59.710Z,5.02
2018-02-07T14:01:14.775Z,5.07
2018-02-07T14:02:30.167Z,5.18
2018-02-07T14:03:45.147Z,5.23
2018-02-07T14:04:59.850Z,5.05
2018-02-07T14:06:14.846Z,5.02
2018-02-07T14:07:30.132Z,5.01
2018-02-07T14:08:45.183Z,5.08
2018-02-07T14:10:00.210Z,5.13
2018-02-07T14:11:15.292Z,5.22
2018-02-07T14:12:30.019Z,5.33
2018-02-07T14:13:45.361Z,5.23
2018-02-07T14:14:59.857Z,5.2
2018-02-07T14:16:14.337Z,5.22
2018-02-07T14:17:29.437Z,5.1
2018-02-07T14:18:44.396Z,5.1
2018-02-07T14:19:59.114Z,5.1
2018-02-07T14:21:13.624Z,5.19
2018-02-07T14:22:28.966Z,5.16
2018-02-07T14:23:44.040Z,5.29
2018-02-07T14:24:58.762Z,5.25
2018-02-07T14:26:14.130Z,5.33
2018-02-07T14:27:28.310Z,5.38
2018-02-07T14:28:43.944Z,5.33
2018-02-07T14:29:58.966Z,5.31
2018-02-07T14:31:13.618Z,5.26
2018-02-07T14:32:28.127Z,5.34
2018-02-07T14:33:42.476Z,5.23
2018-02-07T14:34:57.720Z,5.26
2018-02-07T14:36:12.069Z,5.19
2018-02-07T14:37:27.380Z,5.25
2018-02-07T14:38:41.928Z,5.23
2018-02-07T14:39:57.159Z,5.26
2018-02-07T14:41:12.692Z,5.2
2018-02-07T14:42:27.795Z,5.2
2018-02-07T14:43:42.613Z,5.22
2018-02-07T14:44:57.252Z,5.23
2018-02-07T14:46:12.049Z,5.18
2018-02-07T14:47:27.093Z,5.19
2018-02-07T14:48:42.514Z,5.12
2018-02-07T14:49:57.436Z,5.12
2018-02-07T14:51:11.900Z,5.13
2018-02-07T14:52:27.265Z,5.19
2018-02-07T14:53:42.149Z,5.1
2018-02-07T14:54:56.854Z,5
2018-02-07T14:56:12.026Z,5.01
2018-02-07T14:57:27.066Z,5.01
2018-02-07T14:58:41.768Z,5.01
2018-02-07T14:59:57.074Z,5.04
2018-02-07T15:01:12.087Z,5.01
2018-02-07T15:02:27.433Z,4.92
2018-02-07T15:03:43.226Z,4.98
2018-02-07T15:04:58.165Z,4.83
2018-02-07T15:06:13.456Z,4.95
2018-02-07T15:07:28.158Z,4.83
2018-02-07T15:09:12.848Z,4.89
2018-02-07T15:10:27.702Z,4.78
2018-02-07T15:11:43.238Z,4.84
2018-02-07T15:12:58.055Z,4.82
2018-02-07T15:14:13.448Z,4.7
2018-02-07T15:15:28.306Z,4.68
2018-02-07T15:16:43.252Z,4.64
2018-02-07T15:17:58.271Z,4.63
2018-02-07T15:19:13.283Z,4.71
2018-02-07T15:20:27.953Z,4.67
2018-02-07T15:21:42.769Z,4.67
2018-02-07T15:22:56.944Z,4.63
2018-02-07T15:24:11.864Z,4.63
2018-02-07T15:25:26.579Z,4.56
2018-02-07T15:26:41.363Z,4.61
2018-02-07T15:27:56.344Z,4.6
2018-02-07T15:29:11.106Z,4.6
2018-02-07T15:30:26.945Z,4.52
2018-02-07T15:31:41.952Z,4.46
2018-02-07T15:32:56.945Z,4.58
2018-02-07T15:34:11.582Z,4.53
2018-02-07T15:35:26.841Z,4.53
2018-02-07T15:36:41.703Z,4.53
2018-02-07T15:37:56.112Z,4.48
2018-02-07T15:39:11.072Z,4.48
2018-02-07T15:40:26.885Z,4.56
2018-02-07T15:41:41.875Z,4.49
2018-02-07T15:42:57.141Z,4.48
2018-02-07T15:44:12.684Z,4.58
2018-02-07T15:45:28.569Z,4.5
2018-02-07T15:46:43.303Z,4.52
2018-02-07T15:47:57.993Z,4.52
2018-02-07T15:49:12.956Z,4.49
2018-02-07T15:50:27.652Z,4.42
2018-02-07T15:51:42.252Z,4.48
2018-02-07T15:52:57.183Z,4.43
2018-02-07T15:54:12.208Z,4.48
2018-02-07T15:55:27.727Z,4.5
2018-02-07T15:56:42.198Z,4.48
2018-02-07T15:57:56.841Z,4.34
2018-02-07T15:59:12.122Z,4.36
2018-02-07T16:00:27.183Z,4.49
2018-02-07T16:01:42.612Z,4.46
2018-02-07T16:02:56.750Z,4.5
2018-02-07T16:04:11.684Z,4.52
2018-02-07T16:05:55.853Z,4.48
2018-02-07T16:07:10.707Z,4.46
2018-02-07T16:08:25.664Z,4.58
2018-02-07T16:09:41.304Z,4.48
2018-02-07T16:10:55.937Z,4.39
2018-02-07T16:12:11.001Z,4.27
2018-02-07T16:13:26.041Z,4.3
2018-02-07T16:14:41.096Z,4.28
2018-02-07T16:15:57.111Z,4.21
2018-02-07T16:17:12.056Z,4.2
2018-02-07T16:18:27.101Z,4.16
2018-02-07T16:19:42.130Z,4.16
2018-02-07T16:20:56.818Z,4.21
2018-02-07T16:22:11.792Z,4.27
2018-02-07T16:23:26.587Z,4.31
2018-02-07T16:24:41.532Z,4.2
2018-02-07T16:25:57.058Z,4.12
2018-02-07T16:27:11.948Z,4.25
2018-02-07T16:28:27.030Z,4.28
2018-02-07T16:29:42.294Z,4.3
2018-02-07T16:30:56.717Z,4.28
2018-02-07T16:32:12.210Z,4.21
2018-02-07T16:33:27.230Z,4.12
2018-02-07T16:34:42.176Z,4.2
2018-02-07T16:35:57.429Z,4.27
2018-02-07T16:37:12.242Z,4.22
2018-02-07T16:38:27.515Z,4.25
2018-02-07T16:39:42.290Z,4.14
2018-02-07T16:40:57.403Z,4.18
2018-02-07T16:42:13.003Z,4.14
2018-02-07T16:43:28.054Z,4.12
2018-02-07T16:45:09.398Z,4.18